Time;durP1;ratioP1;P1;durP2;ratioP2;P2;SDS_P1;SDS_P2;PMS_P1;PMS_P2;Temp;Humidity;BMP_temperature;BMP_pressure;BME280_temperature;BME280_humidity;BME280_pressure;Samples;Min_cycle;Max_cycle;Signal;HPM_P1;HPM_P2
2022/01/01 00:02:06;;;;;;;49.72;15.05;;;8.90;99.90;;;;;;5058138;28;20473;-85
2022/01/01 00:04:31;;;;;;;38.42;11.80;;;8.90;99.90;;;;;;5054525;28;20041;-85
2022/01/01 00:06:57;;;;;;;38.03;9.18;;;8.80;99.90;;;;;;5055787;28;20100;-85
2022/01/01 00:09:22;;;;;;;26.25;7.55;;;8.80;99.90;;;;;;5057716;28;20036;-85
2022/01/01 00:11:48;;;;;;;34.53;8.00;;;8.80;99.90;;;;;;5055273;28;20025;-85
2022/01/01 00:14:13;;;;;;;42.42;8.05;;;8.80;99.90;;;;;;5055212;28;20032;-85
2022/01/01 00:16:39;;;;;;;38.25;8.10;;;8.70;99.90;;;;;;5055846;28;20028;-85
2022/01/01 00:19:05;;;;;;;38.03;9.10;;;8.70;99.90;;;;;;5053955;28;20036;-85
2022/01/01 00:21:30;;;;;;;39.42;9.20;;;8.70;99.90;;;;;;5052410;28;20021;-85
2022/01/01 00:23:56;;;;;;;36.95;8.23;;;8.70;99.90;;;;;;5053642;28;20036;-84
2022/01/01 00:26:22;;;;;;;39.10;7.57;;;8.60;99.90;;;;;;5052391;28;20057;-84
2022/01/01 00:28:48;;;;;;;32.40;7.90;;;8.60;99.90;;;;;;5052416;28;20017;-85
2022/01/01 00:31:14;;;;;;;37.95;8.45;;;8.50;99.90;;;;;;5052278;28;20079;-85
2022/01/01 00:33:39;;;;;;;32.97;9.00;;;8.40;99.90;;;;;;5052405;28;20123;-85
2022/01/01 00:36:05;;;;;;;49.53;18.27;;;8.40;99.90;;;;;;5052197;28;20021;-85
2022/01/01 00:38:31;;;;;;;56.08;16.67;;;8.40;99.90;;;;;;5053615;28;20719;-86
2022/01/01 00:40:57;;;;;;;43.75;11.32;;;8.40;99.90;;;;;;5052243;28;20385;-83
2022/01/01 00:43:24;;;;;;;34.50;9.88;;;8.40;99.90;;;;;;5053305;28;20021;-83
2022/01/01 00:45:50;;;;;;;36.38;9.52;;;8.40;99.90;;;;;;5052031;28;20059;-83
2022/01/01 00:48:15;;;;;;;43.42;10.05;;;8.30;99.90;;;;;;5053290;28;20106;-84
2022/01/01 00:50:41;;;;;;;38.95;8.43;;;8.30;99.90;;;;;;5053244;28;20028;-84
2022/01/01 00:53:07;;;;;;;40.08;8.68;;;8.30;99.90;;;;;;5051848;28;20025;-84
2022/01/01 00:55:33;;;;;;;30.05;6.72;;;8.20;99.90;;;;;;5053701;28;20100;-84
2022/01/01 00:58:00;;;;;;;46.35;8.43;;;8.30;99.90;;;;;;5053520;28;20021;-84
2022/01/01 01:00:25;;;;;;;33.15;8.20;;;8.30;99.90;;;;;;5053488;28;20047;-83
2022/01/01 01:02:51;;;;;;;42.95;8.13;;;8.20;99.90;;;;;;5051841;28;20025;-84
2022/01/01 01:05:39;;;;;;;36.10;9.00;;;8.30;99.90;;;;;;5054188;28;20476;-83
2022/01/01 01:08:08;;;;;;;36.35;9.18;;;8.20;99.90;;;;;;5053572;28;20118;-84
2022/01/01 01:11:08;;;;;;;42.22;11.55;;;8.30;99.90;;;;;;5059900;28;20029;-84
2022/01/01 01:13:35;;;;;;;36.50;11.15;;;8.30;99.90;;;;;;5060291;28;20357;-83
2022/01/01 01:16:01;;;;;;;49.00;12.25;;;8.30;99.90;;;;;;5059623;28;20025;-84
2022/01/01 01:21:52;;;;;;;42.15;10.95;;;8.20;99.90;;;;;;5040018;28;20025;-84
2022/01/01 01:24:29;;;;;;;43.05;12.10;;;8.40;99.90;;;;;;5056703;28;20025;-83
2022/01/01 01:27:00;;;;;;;43.72;11.75;;;8.50;99.90;;;;;;5059622;28;20060;-83
2022/01/01 01:29:25;;;;;;;58.63;12.15;;;8.40;99.90;;;;;;5058348;28;20715;-83
2022/01/01 01:31:51;;;;;;;57.17;13.23;;;8.40;99.90;;;;;;5058279;28;20100;-83
2022/01/01 01:34:17;;;;;;;55.47;12.68;;;8.40;99.90;;;;;;5059505;28;20029;-83
2022/01/01 01:36:42;;;;;;;47.58;12.57;;;8.40;99.90;;;;;;5058349;28;20326;-83
2022/01/01 01:39:08;;;;;;;51.90;12.77;;;8.40;99.90;;;;;;5059470;28;20060;-83
2022/01/01 01:41:34;;;;;;;57.53;13.30;;;8.50;99.90;;;;;;5058258;28;20024;-83
2022/01/01 01:44:00;;;;;;;57.67;12.80;;;8.40;99.90;;;;;;5059764;28;20109;-83
2022/01/01 01:46:26;;;;;;;50.88;12.27;;;8.40;99.90;;;;;;5059726;28;20028;-83
2022/01/01 01:48:52;;;;;;;44.88;12.43;;;8.40;99.90;;;;;;5058181;28;20021;-84
2022/01/01 01:51:18;;;;;;;57.05;12.77;;;8.40;99.90;;;;;;5058118;28;20032;-83
2022/01/01 01:53:44;;;;;;;66.38;12.43;;;8.40;99.90;;;;;;5057951;28;20033;-83
2022/01/01 01:56:09;;;;;;;60.17;11.68;;;8.40;99.90;;;;;;5058234;28;20024;-83
2022/01/01 01:58:35;;;;;;;56.33;12.05;;;8.40;99.90;;;;;;5058140;28;20029;-83
2022/01/01 02:03:29;;;;;;;55.60;12.27;;;8.50;99.90;;;;;;5059367;28;20045;-83
2022/01/01 02:05:55;;;;;;;51.67;12.65;;;8.50;99.90;;;;;;5057989;28;20028;-83
2022/01/01 02:08:21;;;;;;;56.47;13.00;;;8.50;99.90;;;;;;5058008;28;20431;-83
2022/01/01 02:10:51;;;;;;;52.88;13.73;;;8.60;99.90;;;;;;5059347;28;20021;-83
2022/01/01 02:13:33;;;;;;;58.17;13.40;;;8.50;99.90;;;;;;5037987;28;20033;-83
2022/01/01 02:18:49;;;;;;;45.38;11.75;;;8.60;99.90;;;;;;5036147;28;20108;-83
2022/01/01 02:21:15;;;;;;;50.03;12.10;;;8.50;99.90;;;;;;5036026;28;20036;-83
2022/01/01 02:23:43;;;;;;;55.25;12.88;;;8.50;99.90;;;;;;5036073;28;20033;-83
2022/01/01 02:26:12;;;;;;;57.05;13.15;;;8.50;99.90;;;;;;5035147;28;20025;-83
2022/01/01 02:28:46;;;;;;;54.33;12.23;;;8.40;99.90;;;;;;5036515;28;20112;-83
2022/01/01 02:31:14;;;;;;;50.10;11.52;;;8.40;99.90;;;;;;5034642;28;20025;-84
2022/01/01 02:33:39;;;;;;;48.45;11.98;;;8.30;99.90;;;;;;5035738;28;20033;-83
2022/01/01 02:36:06;;;;;;;51.70;9.82;;;8.30;99.90;;;;;;5036158;28;20377;-83
2022/01/01 02:38:33;;;;;;;44.03;10.23;;;8.30;99.90;;;;;;5035752;28;20022;-83
2022/01/01 02:40:58;;;;;;;47.30;9.60;;;8.30;99.90;;;;;;5035706;28;20028;-83
2022/01/01 02:43:25;;;;;;;48.92;8.75;;;8.40;99.90;;;;;;5035754;28;20033;-83
2022/01/01 02:45:51;;;;;;;46.38;8.52;;;8.30;99.90;;;;;;5035855;28;20029;-83
2022/01/01 02:48:16;;;;;;;51.30;8.55;;;8.30;99.90;;;;;;5035528;28;20105;-83
2022/01/01 02:50:42;;;;;;;56.28;8.90;;;8.30;99.90;;;;;;5035713;28;20022;-83
2022/01/01 02:53:15;;;;;;;48.60;8.30;;;8.30;99.90;;;;;;5035339;28;20029;-83
2022/01/01 02:55:43;;;;;;;61.75;8.50;;;8.30;99.90;;;;;;5034097;28;20057;-83
2022/01/01 02:58:11;;;;;;;49.10;7.45;;;8.30;99.90;;;;;;5035799;28;20096;-83
2022/01/01 03:00:37;;;;;;;53.50;9.73;;;8.30;99.90;;;;;;5034146;28;20067;-83
2022/01/01 03:03:04;;;;;;;46.97;8.85;;;8.40;99.90;;;;;;5050758;28;20034;-83
2022/01/01 03:05:33;;;;;;;60.55;8.85;;;8.40;99.90;;;;;;5035468;28;20429;-83
2022/01/01 03:07:59;;;;;;;38.08;8.43;;;8.40;99.90;;;;;;5035880;28;20076;-83
2022/01/01 03:10:25;;;;;;;49.63;8.23;;;8.40;99.90;;;;;;5035101;28;20037;-83
2022/01/01 03:12:51;;;;;;;47.88;8.25;;;8.40;99.90;;;;;;5033965;28;20039;-83
2022/01/01 03:15:16;;;;;;;54.78;8.98;;;8.40;99.90;;;;;;5035089;28;20132;-83
2022/01/01 03:17:42;;;;;;;49.15;10.23;;;8.30;99.90;;;;;;5033768;28;20025;-83
2022/01/01 03:20:09;;;;;;;47.90;8.38;;;8.30;99.90;;;;;;5050215;28;20074;-83
2022/01/01 03:22:35;;;;;;;59.85;9.05;;;8.30;99.90;;;;;;5033601;28;20025;-83
2022/01/01 03:25:01;;;;;;;40.67;7.88;;;8.30;99.90;;;;;;5034909;28;20033;-83
2022/01/01 03:27:26;;;;;;;46.60;8.95;;;8.40;99.90;;;;;;5034836;28;20032;-83
2022/01/01 03:29:52;;;;;;;55.42;8.48;;;8.40;99.90;;;;;;5033673;28;20037;-83
2022/01/01 03:32:17;;;;;;;48.58;9.00;;;8.40;99.90;;;;;;5034687;28;20021;-83
2022/01/01 03:34:43;;;;;;;55.28;8.60;;;8.60;99.90;;;;;;5034520;28;20040;-83
2022/01/01 03:37:09;;;;;;;49.42;9.38;;;8.80;99.90;;;;;;5034814;28;20025;-83
2022/01/01 03:39:35;;;;;;;51.42;8.98;;;8.80;99.90;;;;;;5033283;28;20095;-83
2022/01/01 03:42:00;;;;;;;52.42;9.30;;;8.90;99.90;;;;;;5034643;28;20056;-83
2022/01/01 03:44:26;;;;;;;48.60;8.80;;;9.00;99.90;;;;;;5033203;28;20056;-83
2022/01/01 03:46:58;;;;;;;50.83;9.73;;;8.90;99.90;;;;;;5034543;28;20025;-83
2022/01/01 03:49:24;;;;;;;44.10;8.57;;;8.80;99.90;;;;;;5034826;28;20021;-83
2022/01/01 03:51:49;;;;;;;37.47;8.55;;;8.70;99.90;;;;;;5034373;28;20488;-83
2022/01/01 03:54:16;;;;;;;45.88;8.20;;;8.70;99.90;;;;;;5034282;28;20029;-83
2022/01/01 03:56:42;;;;;;;43.85;8.57;;;8.60;99.90;;;;;;5033028;28;20027;-83
2022/01/01 03:59:08;;;;;;;50.03;8.70;;;8.60;99.90;;;;;;5034228;28;20029;-83
2022/01/01 04:01:33;;;;;;;35.42;8.32;;;8.60;99.90;;;;;;5034210;28;20377;-83
2022/01/01 04:03:59;;;;;;;49.30;10.10;;;8.60;99.90;;;;;;5039477;28;20053;-83
2022/01/01 04:06:24;;;;;;;36.58;10.35;;;8.50;99.90;;;;;;5054025;28;20155;-83
2022/01/01 04:08:50;;;;;;;41.05;10.35;;;8.30;99.90;;;;;;5054243;28;20024;-83
2022/01/01 04:11:15;;;;;;;44.58;10.77;;;8.20;99.90;;;;;;5053851;28;20047;-83
2022/01/01 04:13:41;;;;;;;49.50;11.43;;;8.20;99.90;;;;;;5053781;28;20387;-83
2022/01/01 04:16:07;;;;;;;50.08;11.85;;;8.30;99.90;;;;;;5052641;28;20035;-83
2022/01/01 04:18:38;;;;;;;48.25;12.00;;;8.40;99.90;;;;;;5052419;28;20028;-83
2022/01/01 04:21:08;;;;;;;53.17;11.77;;;8.60;99.90;;;;;;5053821;28;20053;-83
2022/01/01 04:23:34;;;;;;;52.88;12.10;;;8.70;99.90;;;;;;5052528;28;20025;-83
2022/01/01 04:26:00;;;;;;;45.90;11.05;;;8.80;99.90;;;;;;5053701;28;20495;-83
2022/01/01 04:28:25;;;;;;;53.75;11.40;;;8.80;99.90;;;;;;5052417;28;20556;-83
2022/01/01 04:30:51;;;;;;;51.33;11.07;;;9.00;99.90;;;;;;5053717;28;20079;-83
2022/01/01 04:33:16;;;;;;;53.17;12.70;;;9.10;99.90;;;;;;5052277;28;20090;-83
2022/01/01 04:35:42;;;;;;;60.20;11.77;;;9.20;99.90;;;;;;5053708;28;20381;-83
2022/01/01 04:38:17;;;;;;;48.25;11.73;;;9.40;99.90;;;;;;5052149;28;20021;-83
2022/01/01 04:40:43;;;;;;;67.43;12.73;;;9.50;99.90;;;;;;5051925;28;20025;-83
2022/01/01 04:43:09;;;;;;;91.35;13.77;;;9.50;99.90;;;;;;5053468;28;20038;-83
2022/01/01 04:45:34;;;;;;;69.63;12.57;;;9.60;99.90;;;;;;5052157;28;20037;-83
2022/01/01 04:48:00;;;;;;;88.55;15.18;;;9.70;99.90;;;;;;5052100;28;20044;-83
2022/01/01 04:50:25;;;;;;;91.57;13.35;;;9.80;99.90;;;;;;5052108;28;20032;-83
2022/01/01 04:52:53;;;;;;;92.72;13.27;;;9.80;99.90;;;;;;5053371;28;20377;-83
2022/01/01 04:55:18;;;;;;;80.22;13.48;;;9.90;99.90;;;;;;5053670;28;20478;-83
2022/01/01 04:57:44;;;;;;;77.93;12.60;;;9.90;99.90;;;;;;5053305;28;20480;-83
2022/01/01 05:00:10;;;;;;;168.60;18.40;;;10.10;99.90;;;;;;5051998;28;20025;-83
2022/01/01 05:02:35;;;;;;;121.10;15.27;;;10.10;99.90;;;;;;5053453;28;20659;-83
2022/01/01 05:05:01;;;;;;;338.50;28.90;;;10.10;99.90;;;;;;5051975;28;20481;-83
2022/01/01 05:07:26;;;;;;;111.95;14.93;;;10.20;99.90;;;;;;5051912;28;20029;-83
2022/01/01 05:09:52;;;;;;;89.95;15.30;;;10.30;99.90;;;;;;5053174;28;20063;-83
2022/01/01 05:12:17;;;;;;;71.32;13.45;;;10.20;99.90;;;;;;5053162;28;20082;-83
2022/01/01 05:14:43;;;;;;;76.60;13.82;;;10.30;99.90;;;;;;5051726;28;20025;-83
2022/01/01 05:17:09;;;;;;;74.03;12.90;;;10.30;99.90;;;;;;5052511;28;20021;-83
2022/01/01 05:19:34;;;;;;;61.67;12.88;;;10.30;99.90;;;;;;5053033;28;20028;-83
2022/01/01 05:22:00;;;;;;;59.95;12.55;;;10.30;99.90;;;;;;5051674;28;20017;-83
2022/01/01 05:24:26;;;;;;;60.17;12.23;;;10.40;99.90;;;;;;5051654;28;20362;-83
2022/01/01 05:26:51;;;;;;;55.30;12.88;;;10.40;99.90;;;;;;5051740;28;20431;-83
2022/01/01 05:29:17;;;;;;;58.28;13.20;;;10.40;99.90;;;;;;5052997;28;20057;-83
2022/01/01 05:31:42;;;;;;;46.70;12.52;;;10.40;99.90;;;;;;5052985;28;20417;-83
2022/01/01 05:34:08;;;;;;;41.42;11.85;;;10.40;99.90;;;;;;5050595;28;20029;-83
2022/01/01 05:36:34;;;;;;;36.20;10.57;;;10.40;99.90;;;;;;5041770;28;20377;-82
2022/01/01 05:38:59;;;;;;;35.75;9.60;;;10.20;99.90;;;;;;5047690;28;20033;-82
2022/01/01 05:41:52;;;;;;;37.13;8.93;;;10.10;99.90;;;;;;5052857;28;20037;-82
2022/01/01 05:44:18;;;;;;;31.00;9.00;;;9.90;99.90;;;;;;5033430;28;20018;-82
2022/01/01 05:46:57;;;;;;;36.30;9.48;;;9.90;99.90;;;;;;5032989;28;20033;-83
2022/01/01 05:49:22;;;;;;;27.80;8.68;;;9.90;99.90;;;;;;5041529;28;20542;-83
2022/01/01 05:51:48;;;;;;;43.47;8.80;;;9.80;99.90;;;;;;5046563;28;20096;-83
2022/01/01 05:54:13;;;;;;;32.50;8.13;;;9.70;99.90;;;;;;5049852;28;20040;-83
2022/01/01 05:56:39;;;;;;;34.60;8.43;;;9.60;99.90;;;;;;5047110;28;20028;-83
2022/01/01 05:59:05;;;;;;;36.00;8.77;;;9.60;99.90;;;;;;5053630;28;20028;-83
2022/01/01 06:01:31;;;;;;;31.13;8.38;;;9.60;99.90;;;;;;5052459;28;20025;-83
2022/01/01 06:03:56;;;;;;;28.00;7.78;;;9.50;99.90;;;;;;5052061;28;20079;-83
2022/01/01 06:06:22;;;;;;;37.75;8.90;;;9.50;99.90;;;;;;5053158;28;20032;-83
2022/01/01 06:08:51;;;;;;;31.08;8.18;;;9.50;99.90;;;;;;5053559;28;20640;-83
2022/01/01 06:11:16;;;;;;;32.50;7.50;;;9.50;99.90;;;;;;5053140;28;20428;-83
2022/01/01 06:13:42;;;;;;;37.33;9.13;;;9.70;99.90;;;;;;5053489;28;20032;-83
2022/01/01 06:16:07;;;;;;;39.13;9.13;;;10.00;99.90;;;;;;5053175;28;20033;-83
2022/01/01 06:18:33;;;;;;;36.15;8.82;;;10.00;99.90;;;;;;5051940;28;20032;-83
2022/01/01 06:20:59;;;;;;;40.45;9.30;;;10.10;99.90;;;;;;5052270;28;20032;-83
2022/01/01 06:23:25;;;;;;;40.60;8.75;;;10.10;99.90;;;;;;5053352;28;20049;-83
2022/01/01 06:25:50;;;;;;;39.72;9.38;;;10.20;99.90;;;;;;5053481;28;20048;-83
2022/01/01 06:28:16;;;;;;;32.83;9.48;;;10.20;99.90;;;;;;5052959;28;20025;-83
2022/01/01 06:30:41;;;;;;;37.58;9.30;;;10.20;99.90;;;;;;5053336;28;20055;-83
2022/01/01 06:33:14;;;;;;;45.97;10.10;;;10.20;99.90;;;;;;5052952;28;20032;-83
2022/01/01 06:35:40;;;;;;;39.05;9.57;;;10.30;99.90;;;;;;5044767;28;20051;-82
2022/01/01 06:38:06;;;;;;;44.45;10.45;;;10.30;99.90;;;;;;5051655;28;20037;-82
2022/01/01 06:40:31;;;;;;;53.58;11.52;;;10.40;99.90;;;;;;5051518;28;20029;-83
2022/01/01 06:42:57;;;;;;;53.05;11.15;;;10.50;99.90;;;;;;5052826;28;20033;-83
2022/01/01 06:45:23;;;;;;;42.70;10.55;;;10.50;99.90;;;;;;5052995;28;20052;-82
2022/01/01 06:47:48;;;;;;;56.63;11.77;;;10.60;99.90;;;;;;5051314;28;20079;-83
2022/01/01 06:50:14;;;;;;;51.25;12.20;;;10.70;99.90;;;;;;5051449;28;20025;-82
2022/01/01 06:52:46;;;;;;;50.83;11.85;;;10.70;99.90;;;;;;5046758;28;20025;-83
2022/01/01 06:55:13;;;;;;;55.85;12.43;;;10.70;99.90;;;;;;5047667;28;20033;-83
2022/01/01 06:57:40;;;;;;;56.58;13.02;;;10.80;99.90;;;;;;5052993;28;20048;-83
2022/01/01 07:00:06;;;;;;;53.13;13.15;;;10.80;99.90;;;;;;5039167;28;20555;-82
2022/01/01 07:02:41;;;;;;;57.17;13.68;;;10.80;99.90;;;;;;5054106;28;20017;-83
2022/01/01 07:05:08;;;;;;;51.67;13.98;;;10.70;99.90;;;;;;5055829;28;20052;-83
2022/01/01 07:07:33;;;;;;;51.45;14.57;;;10.70;99.90;;;;;;5038415;28;20026;-83
2022/01/01 07:09:59;;;;;;;49.30;14.75;;;10.70;99.90;;;;;;5043156;28;20029;-83
2022/01/01 07:12:24;;;;;;;54.17;14.23;;;10.70;99.90;;;;;;5048798;28;20097;-82
2022/01/01 07:14:50;;;;;;;51.85;14.82;;;10.70;99.90;;;;;;5049447;28;20025;-83
2022/01/01 07:17:15;;;;;;;50.97;13.23;;;10.70;99.90;;;;;;5055017;28;20028;-82
2022/01/01 07:19:41;;;;;;;53.80;14.13;;;10.80;99.90;;;;;;5054967;28;20021;-82
2022/01/01 07:22:06;;;;;;;55.30;12.52;;;10.80;99.90;;;;;;5051047;28;20381;-82
2022/01/01 07:24:32;;;;;;;39.80;12.90;;;10.80;99.90;;;;;;5034531;28;20021;-82
2022/01/01 07:27:31;;;;;;;54.50;12.75;;;10.90;99.90;;;;;;5048867;28;20036;-82
2022/01/01 07:29:56;;;;;;;47.40;13.90;;;10.90;99.90;;;;;;5045206;28;20025;-82
2022/01/01 07:32:31;;;;;;;47.83;13.75;;;10.90;99.90;;;;;;5054660;28;20021;-82
2022/01/01 07:34:57;;;;;;;51.67;15.02;;;10.80;99.90;;;;;;5053447;28;20753;-82
2022/01/01 07:37:22;;;;;;;47.42;14.73;;;10.60;99.90;;;;;;5054611;28;20060;-82
2022/01/01 07:39:48;;;;;;;47.20;15.60;;;10.50;99.90;;;;;;5053170;28;20017;-82
2022/01/01 07:42:13;;;;;;;42.10;14.52;;;10.60;99.90;;;;;;5054537;28;20029;-82
2022/01/01 07:44:40;;;;;;;55.15;15.50;;;10.60;99.90;;;;;;5054403;28;20063;-83
2022/01/01 07:47:06;;;;;;;53.30;15.25;;;10.70;99.90;;;;;;5054361;28;20496;-83
2022/01/01 07:49:32;;;;;;;58.95;15.30;;;10.60;99.90;;;;;;5053252;28;20032;-83
2022/01/01 07:51:57;;;;;;;47.55;16.67;;;10.60;99.90;;;;;;5053097;28;20017;-82
2022/01/01 07:54:23;;;;;;;44.50;15.07;;;10.60;99.90;;;;;;5054100;28;20033;-82
2022/01/01 07:56:48;;;;;;;49.80;16.38;;;10.70;99.90;;;;;;5052940;28;20495;-82
2022/01/01 07:59:14;;;;;;;52.10;15.05;;;10.70;99.90;;;;;;5053210;28;20480;-82
2022/01/01 08:01:40;;;;;;;52.58;15.52;;;10.70;99.90;;;;;;5054119;28;20021;-82
2022/01/01 08:04:06;;;;;;;52.67;14.90;;;10.70;99.90;;;;;;5054250;28;20152;-82
2022/01/01 08:06:32;;;;;;;42.40;15.13;;;10.70;99.90;;;;;;5054055;28;20024;-82
2022/01/01 08:08:57;;;;;;;45.08;13.50;;;10.70;99.90;;;;;;5052840;28;20059;-83
2022/01/01 08:11:24;;;;;;;48.92;13.93;;;10.80;99.90;;;;;;5052917;28;20052;-82
2022/01/01 08:13:50;;;;;;;39.00;13.48;;;10.80;99.90;;;;;;5052484;28;20025;-83
2022/01/01 08:16:15;;;;;;;38.95;12.55;;;10.80;99.90;;;;;;5052362;28;20064;-82
2022/01/01 08:18:41;;;;;;;41.63;13.63;;;10.80;99.90;;;;;;5052505;28;20052;-82
2022/01/01 08:21:07;;;;;;;43.60;13.63;;;10.80;99.90;;;;;;5052538;28;20798;-83
2022/01/01 08:23:32;;;;;;;34.20;13.27;;;10.80;99.90;;;;;;5052425;28;20507;-83
2022/01/01 08:25:58;;;;;;;47.53;13.65;;;10.80;99.90;;;;;;5053753;28;20083;-82
2022/01/01 08:28:24;;;;;;;38.15;12.63;;;10.90;99.90;;;;;;5052415;28;20025;-82
2022/01/01 08:30:49;;;;;;;38.53;14.02;;;10.90;99.90;;;;;;5053716;28;20019;-83
2022/01/01 08:33:15;;;;;;;36.33;14.25;;;11.00;99.90;;;;;;5053428;28;20033;-82
2022/01/01 08:35:41;;;;;;;37.97;14.48;;;11.00;99.90;;;;;;5053561;28;20025;-83
2022/01/01 08:38:06;;;;;;;42.28;14.88;;;10.90;99.90;;;;;;5039376;28;20018;-82
2022/01/01 08:40:33;;;;;;;46.03;15.77;;;10.90;99.90;;;;;;5036935;28;20021;-83
2022/01/01 08:42:59;;;;;;;38.47;15.35;;;10.90;99.90;;;;;;5053386;28;20139;-83
2022/01/01 08:45:24;;;;;;;35.10;14.38;;;10.70;99.90;;;;;;5053423;28;20100;-83
2022/01/01 08:47:51;;;;;;;43.08;16.75;;;10.70;99.90;;;;;;5053434;28;20389;-83
2022/01/01 08:50:16;;;;;;;37.78;14.45;;;10.70;99.90;;;;;;5052088;28;20032;-82
2022/01/01 08:52:43;;;;;;;36.13;14.90;;;10.70;99.90;;;;;;5052110;28;20025;-81
2022/01/01 08:55:09;;;;;;;34.72;15.10;;;10.60;99.90;;;;;;5052108;28;20084;-81
2022/01/01 08:57:34;;;;;;;31.83;14.80;;;10.70;99.90;;;;;;5052039;28;20057;-81
2022/01/01 09:00:02;;;;;;;37.72;16.65;;;10.70;99.90;;;;;;5051867;28;20079;-82
2022/01/01 09:02:27;;;;;;;36.70;16.15;;;10.80;99.90;;;;;;5051824;28;20094;-81
2022/01/01 09:04:53;;;;;;;34.38;15.98;;;10.80;99.90;;;;;;5051773;28;20481;-82
2022/01/01 09:07:19;;;;;;;43.58;15.60;;;10.90;99.90;;;;;;5053163;28;20033;-82
2022/01/01 09:09:45;;;;;;;46.17;15.90;;;10.80;99.90;;;;;;5053226;28;20079;-82
2022/01/01 09:12:11;;;;;;;39.88;16.20;;;10.80;99.90;;;;;;5053226;28;20060;-82
2022/01/01 09:14:38;;;;;;;33.72;16.55;;;10.80;99.90;;;;;;5052939;28;20029;-81
2022/01/01 09:17:06;;;;;;;38.95;16.20;;;10.90;99.90;;;;;;5053107;28;20405;-81
2022/01/01 09:19:32;;;;;;;39.67;15.93;;;10.90;99.90;;;;;;5051800;28;20124;-81
2022/01/01 09:21:57;;;;;;;31.73;14.98;;;10.90;99.90;;;;;;5053072;28;20048;-81
2022/01/01 09:24:23;;;;;;;35.30;15.32;;;10.90;99.90;;;;;;5051772;28;20032;-81
2022/01/01 09:26:48;;;;;;;38.88;15.27;;;11.00;99.90;;;;;;5053842;28;20052;-81
2022/01/01 09:29:14;;;;;;;39.25;15.18;;;11.00;99.90;;;;;;5055842;28;20108;-81
2022/01/01 09:31:41;;;;;;;35.97;15.23;;;10.90;99.90;;;;;;5055752;28;20427;-81
2022/01/01 09:34:08;;;;;;;37.72;14.98;;;10.90;99.90;;;;;;5056816;28;20078;-82
2022/01/01 09:36:34;;;;;;;35.05;14.55;;;10.90;99.90;;;;;;5056901;28;20063;-82
2022/01/01 09:39:00;;;;;;;37.13;14.38;;;10.80;99.90;;;;;;5036990;28;20028;-82
2022/01/01 09:41:26;;;;;;;34.75;13.57;;;10.80;99.90;;;;;;5042320;28;20021;-81
2022/01/01 09:43:56;;;;;;;32.45;13.90;;;10.80;99.90;;;;;;5055503;28;20120;-81
2022/01/01 09:46:22;;;;;;;38.92;14.15;;;10.80;99.90;;;;;;5055532;28;20021;-82
2022/01/01 09:48:50;;;;;;;33.95;13.27;;;10.90;99.90;;;;;;5055390;28;20029;-82
2022/01/01 09:51:16;;;;;;;30.95;13.05;;;10.80;99.90;;;;;;5055572;28;20472;-82
2022/01/01 09:53:42;;;;;;;36.60;14.00;;;10.80;99.90;;;;;;5056510;28;20083;-81
2022/01/01 09:56:07;;;;;;;30.67;12.57;;;10.80;99.90;;;;;;5055372;28;20021;-82
2022/01/01 09:58:35;;;;;;;31.73;12.70;;;10.80;99.90;;;;;;5056567;28;20028;-81
2022/01/01 10:01:03;;;;;;;27.42;11.02;;;10.90;99.90;;;;;;5055310;28;20025;-81
2022/01/01 10:03:42;;;;;;;29.10;10.63;;;10.90;99.90;;;;;;5056353;28;20049;-82
2022/01/01 10:06:13;;;;;;;25.50;10.03;;;11.00;99.90;;;;;;5055190;28;20084;-81
2022/01/01 10:08:40;;;;;;;22.67;9.75;;;11.00;99.90;;;;;;5055094;28;20117;-81
2022/01/01 10:11:07;;;;;;;23.70;8.68;;;11.00;99.90;;;;;;5055421;28;20116;-82
2022/01/01 10:13:36;;;;;;;25.98;10.32;;;11.10;99.90;;;;;;5054986;28;20037;-81
2022/01/01 10:16:05;;;;;;;24.77;9.77;;;11.10;99.90;;;;;;5054896;28;20024;-81
2022/01/01 10:18:34;;;;;;;25.50;8.82;;;11.10;99.90;;;;;;5056106;28;20043;-81
2022/01/01 10:21:02;;;;;;;20.58;10.02;;;11.30;99.90;;;;;;5054817;28;20472;-81
2022/01/01 10:23:31;;;;;;;23.70;9.75;;;11.30;99.90;;;;;;5056034;28;20032;-82
2022/01/01 10:29:15;;;;;;;22.27;9.13;;;11.50;99.90;;;;;;5047305;28;20376;-81
2022/01/01 10:31:53;;;;;;;17.92;9.43;;;11.60;99.90;;;;;;5055899;28;20025;-81
2022/01/01 10:34:19;;;;;;;21.92;9.10;;;11.60;99.90;;;;;;5056084;28;20029;-81
2022/01/01 10:36:48;;;;;;;25.08;8.85;;;11.60;99.90;;;;;;5054313;28;20060;-82
2022/01/01 10:39:17;;;;;;;20.45;9.77;;;11.60;99.90;;;;;;5055342;28;20155;-82
2022/01/01 10:41:53;;;;;;;21.07;10.23;;;11.90;99.90;;;;;;5054480;28;20036;-81
2022/01/01 10:44:33;;;;;;;24.75;9.70;;;12.00;99.90;;;;;;5054394;28;20033;-81
2022/01/01 10:47:05;;;;;;;;;;;11.90;99.90;;;;;;5056276;28;20040;-82
2022/01/01 10:52:12;;;;;;;23.73;9.20;;;12.10;99.90;;;;;;5055941;28;20025;-81
2022/01/01 10:54:38;;;;;;;19.35;8.68;;;12.30;99.90;;;;;;5054135;28;20484;-82
2022/01/01 10:57:08;;;;;;;21.50;9.93;;;12.30;99.90;;;;;;5054164;28;20028;-81
2022/01/01 10:59:37;;;;;;;22.50;9.73;;;12.30;99.90;;;;;;5054352;28;20490;-81
2022/01/01 11:02:06;;;;;;;23.17;9.48;;;12.40;99.90;;;;;;5055327;28;20033;-81
2022/01/01 11:04:33;;;;;;;25.73;9.88;;;12.50;99.90;;;;;;5055685;28;20056;-81
2022/01/01 11:06:59;;;;;;;18.00;9.55;;;12.60;99.90;;;;;;5055132;28;20032;-82
2022/01/01 11:09:26;;;;;;;19.13;9.30;;;12.50;99.90;;;;;;5053986;28;20103;-82
2022/01/01 11:11:52;;;;;;;19.33;9.00;;;12.50;99.90;;;;;;5055342;28;20017;-82
2022/01/01 11:14:19;;;;;;;19.48;8.88;;;12.50;99.90;;;;;;5053814;28;20106;-81
2022/01/01 11:16:44;;;;;;;18.92;8.70;;;12.40;99.90;;;;;;5055066;28;20469;-82
2022/01/01 11:19:10;;;;;;;17.98;9.40;;;12.30;99.90;;;;;;5053794;28;20075;-81
2022/01/01 11:21:37;;;;;;;22.88;8.50;;;12.20;99.90;;;;;;5054226;28;20400;-81
2022/01/01 11:24:03;;;;;;;18.23;9.30;;;12.20;99.90;;;;;;5054888;28;20054;-81
2022/01/01 11:26:29;;;;;;;19.20;9.27;;;12.20;99.90;;;;;;5053703;28;20021;-81
2022/01/01 11:28:54;;;;;;;19.83;8.80;;;12.20;99.90;;;;;;5053507;28;20028;-82
2022/01/01 11:31:22;;;;;;;22.77;9.13;;;12.20;99.90;;;;;;5054851;28;20021;-81
2022/01/01 11:33:54;;;;;;;13.70;7.90;;;12.10;99.90;;;;;;5053275;28;20052;-81
2022/01/01 11:36:24;;;;;;;15.10;8.35;;;12.10;99.90;;;;;;5053405;28;20021;-82
2022/01/01 11:38:52;;;;;;;15.90;7.97;;;12.10;99.90;;;;;;5053526;28;20169;-81
2022/01/01 11:41:18;;;;;;;19.40;8.77;;;12.10;99.90;;;;;;5054566;28;20025;-81
2022/01/01 11:43:46;;;;;;;21.05;8.82;;;12.20;99.90;;;;;;5053282;28;20032;-81
2022/01/01 11:46:11;;;;;;;19.33;8.68;;;12.20;99.90;;;;;;5053367;28;20017;-82
2022/01/01 11:48:41;;;;;;;18.08;8.40;;;12.20;99.90;;;;;;5054388;28;20021;-82
2022/01/01 11:51:48;;;;;;;20.35;9.00;;;12.20;99.90;;;;;;5052070;28;20025;-81
2022/01/01 11:54:14;;;;;;;19.30;9.00;;;12.30;99.90;;;;;;5054336;28;20369;-81
2022/01/01 11:56:49;;;;;;;17.13;8.05;;;12.30;99.90;;;;;;5053011;28;20579;-81
2022/01/01 11:59:18;;;;;;;16.45;8.65;;;12.30;99.90;;;;;;5054304;28;20742;-81
2022/01/01 12:01:44;;;;;;;18.23;9.57;;;12.30;99.90;;;;;;5052928;28;20032;-82
2022/01/01 12:04:41;;;;;;;17.67;8.75;;;12.20;99.90;;;;;;5052813;28;20049;-82
2022/01/01 12:07:10;;;;;;;21.50;9.27;;;12.30;99.90;;;;;;5053095;28;20029;-82
2022/01/01 12:09:57;;;;;;;17.73;8.63;;;12.20;99.90;;;;;;5052803;28;20020;-81
2022/01/01 12:12:42;;;;;;;19.73;8.50;;;12.10;99.90;;;;;;5032824;28;20021;-81
2022/01/01 12:15:18;;;;;;;18.30;8.85;;;12.20;99.90;;;;;;5032942;28;20501;-82
2022/01/01 12:18:03;;;;;;;15.82;8.73;;;12.10;99.90;;;;;;5033988;28;20053;-81
2022/01/01 12:20:34;;;;;;;17.58;8.73;;;12.10;99.90;;;;;;5032697;28;20551;-81
2022/01/01 12:26:33;;;;;;;18.65;9.20;;;12.20;99.90;;;;;;5034214;28;20029;-81
2022/01/01 12:29:07;;;;;;;17.27;8.90;;;12.30;99.90;;;;;;5033901;28;20021;-81
2022/01/01 12:31:33;;;;;;;18.92;8.60;;;12.40;99.90;;;;;;5047039;28;20029;-82
2022/01/01 12:34:09;;;;;;;16.45;7.78;;;12.40;99.90;;;;;;5053629;28;20087;-81
2022/01/01 12:36:35;;;;;;;25.02;9.85;;;12.30;99.90;;;;;;5052387;28;20025;-81
2022/01/01 12:39:04;;;;;;;20.13;10.10;;;12.20;99.90;;;;;;5053637;28;20025;-81
2022/01/01 12:41:37;;;;;;;19.02;9.38;;;12.10;99.90;;;;;;5052280;28;20028;-81
2022/01/01 12:44:05;;;;;;;19.63;9.68;;;12.10;99.90;;;;;;5052504;28;20086;-81
2022/01/01 12:46:33;;;;;;;18.45;8.93;;;12.00;99.90;;;;;;5052145;28;20057;-82
2022/01/01 12:49:02;;;;;;;22.90;10.48;;;12.10;99.90;;;;;;5052300;28;20060;-81
2022/01/01 12:51:30;;;;;;;21.17;10.30;;;12.20;99.90;;;;;;5052231;28;20055;-82
2022/01/01 12:54:01;;;;;;;20.23;9.90;;;12.30;99.90;;;;;;5052011;28;20285;-82
2022/01/01 12:56:28;;;;;;;19.23;9.43;;;12.20;99.90;;;;;;5052122;28;20763;-81